LGHI/JKH METAR and TAF weather

Enter ICAO airport designator
Station Type Date Time Source
LGHI METAR 2022/11/30 15:50 UTC NOAA

LGHI 301550Z 00000KT 9999 FEW018 SCT025 16/12 Q1012


Station Type Date Time Source
LGHI Decoded METAR 2022/11/30 15:50 UTC NOAA

Chios Airport , Greece (LGHI) 38-20N 026-08E 4M
Nov 30, 2022 - 10:50 AM EST / 2022.11.30 1550 UTC
Wind: Calm:0
Visibility: greater than 7 mile(s):0
Sky conditions: partly cloudy
Temperature: 60 F (16 C)
Dew Point: 53 F (12 C)
Relative Humidity: 77%
Pressure (altimeter): 29.88 in. Hg (1012 hPa)
ob: LGHI 301550Z 00000KT 9999 FEW018 SCT025 16/12 Q1012
cycle: 16

Station Type Date Time Source
LGHI TAF 2012/09/21 03:06 UTC NOAA

TAF TAF LGHI 210200Z 2103/2115 VRB05KT 9999 SCT020 PROB30
TEMPO 2103/2106 7000 RA SCT018 BKN030
BECMG 2103/2105 30018KT

Example: see airport list